sensor_id;sensor_type;location;lat;lon;timestamp;P1;durP1;ratioP1;P2;durP2;ratioP2
78143;SDS011;67394;52.522;13.622;2023-03-25T00:00:26;4.75;;;2.85;;
78143;SDS011;67394;52.522;13.622;2023-03-25T00:02:52;4.70;;;2.88;;
78143;SDS011;67394;52.522;13.622;2023-03-25T00:05:19;5.40;;;2.70;;
78143;SDS011;67394;52.522;13.622;2023-03-25T00:07:50;4.45;;;3.08;;
78143;SDS011;67394;52.522;13.622;2023-03-25T00:10:17;4.95;;;2.47;;
78143;SDS011;67394;52.522;13.622;2023-03-25T00:12:44;4.25;;;2.45;;
78143;SDS011;67394;52.522;13.622;2023-03-25T00:15:11;4.53;;;2.70;;
78143;SDS011;67394;52.522;13.622;2023-03-25T00:17:38;3.22;;;2.20;;
78143;SDS011;67394;52.522;13.622;2023-03-25T00:20:05;5.88;;;2.83;;
78143;SDS011;67394;52.522;13.622;2023-03-25T00:22:33;5.55;;;2.67;;
78143;SDS011;67394;52.522;13.622;2023-03-25T00:25:00;5.72;;;2.60;;
78143;SDS011;67394;52.522;13.622;2023-03-25T00:27:26;5.15;;;3.17;;
78143;SDS011;67394;52.522;13.622;2023-03-25T00:29:52;5.10;;;2.50;;
78143;SDS011;67394;52.522;13.622;2023-03-25T00:32:19;5.20;;;2.53;;
78143;SDS011;67394;52.522;13.622;2023-03-25T00:34:45;5.22;;;2.65;;
78143;SDS011;67394;52.522;13.622;2023-03-25T00:37:12;4.55;;;2.58;;
78143;SDS011;67394;52.522;13.622;2023-03-25T00:39:39;6.63;;;2.75;;
78143;SDS011;67394;52.522;13.622;2023-03-25T00:42:06;3.35;;;2.15;;
78143;SDS011;67394;52.522;13.622;2023-03-25T00:44:32;4.32;;;2.88;;
78143;SDS011;67394;52.522;13.622;2023-03-25T00:46:58;4.47;;;2.25;;
78143;SDS011;67394;52.522;13.622;2023-03-25T00:49:25;3.08;;;2.33;;
78143;SDS011;67394;52.522;13.622;2023-03-25T00:51:51;4.25;;;2.30;;
78143;SDS011;67394;52.522;13.622;2023-03-25T00:54:19;4.35;;;2.00;;
78143;SDS011;67394;52.522;13.622;2023-03-25T00:56:45;4.53;;;2.47;;
78143;SDS011;67394;52.522;13.622;2023-03-25T00:59:12;5.10;;;2.35;;
78143;SDS011;67394;52.522;13.622;2023-03-25T01:01:38;4.72;;;2.28;;
78143;SDS011;67394;52.522;13.622;2023-03-25T01:04:04;3.78;;;2.05;;
78143;SDS011;67394;52.522;13.622;2023-03-25T01:06:32;3.90;;;1.75;;
78143;SDS011;67394;52.522;13.622;2023-03-25T01:09:01;4.97;;;2.33;;
78143;SDS011;67394;52.522;13.622;2023-03-25T01:11:31;4.00;;;2.00;;
78143;SDS011;67394;52.522;13.622;2023-03-25T01:14:00;2.92;;;1.73;;
78143;SDS011;67394;52.522;13.622;2023-03-25T01:16:27;4.75;;;2.00;;
78143;SDS011;67394;52.522;13.622;2023-03-25T01:18:54;3.45;;;1.95;;
78143;SDS011;67394;52.522;13.622;2023-03-25T01:21:21;2.88;;;1.90;;
78143;SDS011;67394;52.522;13.622;2023-03-25T01:23:47;3.95;;;1.92;;
78143;SDS011;67394;52.522;13.622;2023-03-25T01:26:14;2.83;;;1.92;;
78143;SDS011;67394;52.522;13.622;2023-03-25T01:28:41;2.85;;;2.00;;
78143;SDS011;67394;52.522;13.622;2023-03-25T01:31:10;2.38;;;1.80;;
78143;SDS011;67394;52.522;13.622;2023-03-25T01:33:38;4.88;;;1.70;;
78143;SDS011;67394;52.522;13.622;2023-03-25T01:36:05;3.88;;;2.15;;
78143;SDS011;67394;52.522;13.622;2023-03-25T01:38:32;2.13;;;1.55;;
78143;SDS011;67394;52.522;13.622;2023-03-25T01:41:02;2.97;;;1.60;;
78143;SDS011;67394;52.522;13.622;2023-03-25T01:43:29;3.80;;;1.85;;
78143;SDS011;67394;52.522;13.622;2023-03-25T01:45:56;3.65;;;1.90;;
78143;SDS011;67394;52.522;13.622;2023-03-25T01:48:27;2.22;;;1.58;;
78143;SDS011;67394;52.522;13.622;2023-03-25T01:50:56;2.47;;;1.70;;
78143;SDS011;67394;52.522;13.622;2023-03-25T01:53:27;4.95;;;1.92;;
78143;SDS011;67394;52.522;13.622;2023-03-25T01:55:58;3.25;;;1.88;;
78143;SDS011;67394;52.522;13.622;2023-03-25T01:58:27;6.53;;;2.05;;
78143;SDS011;67394;52.522;13.622;2023-03-25T02:00:54;3.40;;;2.00;;
78143;SDS011;67394;52.522;13.622;2023-03-25T02:03:20;2.63;;;1.90;;
78143;SDS011;67394;52.522;13.622;2023-03-25T02:06:03;3.17;;;1.80;;
78143;SDS011;67394;52.522;13.622;2023-03-25T02:08:35;5.15;;;1.77;;
78143;SDS011;67394;52.522;13.622;2023-03-25T02:11:04;2.78;;;1.92;;
78143;SDS011;67394;52.522;13.622;2023-03-25T02:13:31;3.90;;;1.85;;
78143;SDS011;67394;52.522;13.622;2023-03-25T02:16:03;3.17;;;1.67;;
78143;SDS011;67394;52.522;13.622;2023-03-25T02:33:13;4.75;;;1.92;;
78143;SDS011;67394;52.522;13.622;2023-03-25T02:38:46;4.15;;;1.80;;
78143;SDS011;67394;52.522;13.622;2023-03-25T02:44:24;4.00;;;1.85;;
78143;SDS011;67394;52.522;13.622;2023-03-25T02:46:56;3.97;;;1.90;;
78143;SDS011;67394;52.522;13.622;2023-03-25T02:49:28;4.32;;;1.90;;
78143;SDS011;67394;52.522;13.622;2023-03-25T02:51:59;3.22;;;2.13;;
78143;SDS011;67394;52.522;13.622;2023-03-25T02:54:27;2.85;;;2.08;;
78143;SDS011;67394;52.522;13.622;2023-03-25T02:56:56;4.20;;;1.95;;
78143;SDS011;67394;52.522;13.622;2023-03-25T02:59:25;4.38;;;2.10;;
78143;SDS011;67394;52.522;13.622;2023-03-25T03:01:55;3.95;;;1.90;;
78143;SDS011;67394;52.522;13.622;2023-03-25T03:04:22;4.30;;;2.10;;
78143;SDS011;67394;52.522;13.622;2023-03-25T03:06:50;3.30;;;2.05;;
78143;SDS011;67394;52.522;13.622;2023-03-25T03:09:27;2.70;;;2.30;;
78143;SDS011;67394;52.522;13.622;2023-03-25T03:17:32;5.10;;;2.67;;
78143;SDS011;67394;52.522;13.622;2023-03-25T03:20:14;2.85;;;2.10;;
78143;SDS011;67394;52.522;13.622;2023-03-25T03:25:35;3.85;;;2.03;;
78143;SDS011;67394;52.522;13.622;2023-03-25T03:30:48;4.55;;;2.55;;
78143;SDS011;67394;52.522;13.622;2023-03-25T03:36:09;5.47;;;2.45;;
78143;SDS011;67394;52.522;13.622;2023-03-25T03:38:44;5.22;;;2.30;;
78143;SDS011;67394;52.522;13.622;2023-03-25T03:41:15;5.22;;;2.55;;
78143;SDS011;67394;52.522;13.622;2023-03-25T03:43:53;4.95;;;2.90;;
78143;SDS011;67394;52.522;13.622;2023-03-25T03:46:26;3.75;;;2.42;;
78143;SDS011;67394;52.522;13.622;2023-03-25T03:48:57;3.10;;;2.17;;
78143;SDS011;67394;52.522;13.622;2023-03-25T03:51:26;4.50;;;2.92;;
78143;SDS011;67394;52.522;13.622;2023-03-25T03:54:00;4.20;;;3.03;;
78143;SDS011;67394;52.522;13.622;2023-03-25T03:56:32;6.45;;;3.10;;
78143;SDS011;67394;52.522;13.622;2023-03-25T03:59:27;5.90;;;3.30;;
78143;SDS011;67394;52.522;13.622;2023-03-25T04:02:05;4.85;;;3.03;;
78143;SDS011;67394;52.522;13.622;2023-03-25T04:04:38;5.00;;;2.75;;
78143;SDS011;67394;52.522;13.622;2023-03-25T04:07:11;8.80;;;3.40;;
78143;SDS011;67394;52.522;13.622;2023-03-25T04:12:26;6.18;;;3.53;;
78143;SDS011;67394;52.522;13.622;2023-03-25T04:14:54;7.10;;;3.10;;
78143;SDS011;67394;52.522;13.622;2023-03-25T04:17:22;8.20;;;3.03;;
78143;SDS011;67394;52.522;13.622;2023-03-25T04:19:49;5.20;;;2.92;;
78143;SDS011;67394;52.522;13.622;2023-03-25T04:22:16;5.30;;;3.17;;
78143;SDS011;67394;52.522;13.622;2023-03-25T04:27:09;4.47;;;2.63;;
78143;SDS011;67394;52.522;13.622;2023-03-25T04:29:35;5.35;;;2.83;;
78143;SDS011;67394;52.522;13.622;2023-03-25T04:32:01;4.60;;;2.67;;
78143;SDS011;67394;52.522;13.622;2023-03-25T04:34:28;8.00;;;2.90;;
78143;SDS011;67394;52.522;13.622;2023-03-25T04:36:54;4.45;;;2.60;;
78143;SDS011;67394;52.522;13.622;2023-03-25T04:39:23;5.82;;;2.83;;
78143;SDS011;67394;52.522;13.622;2023-03-25T04:41:50;3.65;;;2.35;;
78143;SDS011;67394;52.522;13.622;2023-03-25T04:44:17;5.82;;;2.92;;
78143;SDS011;67394;52.522;13.622;2023-03-25T04:46:44;5.35;;;2.60;;
78143;SDS011;67394;52.522;13.622;2023-03-25T04:49:18;3.40;;;2.33;;
78143;SDS011;67394;52.522;13.622;2023-03-25T04:51:49;6.05;;;2.45;;
78143;SDS011;67394;52.522;13.622;2023-03-25T04:54:17;6.72;;;2.53;;
78143;SDS011;67394;52.522;13.622;2023-03-25T04:56:44;3.80;;;2.47;;
78143;SDS011;67394;52.522;13.622;2023-03-25T04:59:11;5.30;;;2.13;;
78143;SDS011;67394;52.522;13.622;2023-03-25T05:01:38;4.68;;;2.28;;
78143;SDS011;67394;52.522;13.622;2023-03-25T05:04:04;4.00;;;2.20;;
78143;SDS011;67394;52.522;13.622;2023-03-25T05:06:35;3.30;;;1.88;;
78143;SDS011;67394;52.522;13.622;2023-03-25T05:09:03;5.00;;;2.13;;
78143;SDS011;67394;52.522;13.622;2023-03-25T05:11:32;4.80;;;2.20;;
78143;SDS011;67394;52.522;13.622;2023-03-25T05:14:00;3.45;;;2.17;;
78143;SDS011;67394;52.522;13.622;2023-03-25T05:16:26;6.43;;;2.33;;
78143;SDS011;67394;52.522;13.622;2023-03-25T05:18:52;4.03;;;2.53;;
78143;SDS011;67394;52.522;13.622;2023-03-25T05:21:19;5.53;;;2.25;;
78143;SDS011;67394;52.522;13.622;2023-03-25T05:23:45;2.97;;;2.03;;
78143;SDS011;67394;52.522;13.622;2023-03-25T05:26:12;5.47;;;2.30;;
78143;SDS011;67394;52.522;13.622;2023-03-25T05:28:38;8.25;;;2.40;;
78143;SDS011;67394;52.522;13.622;2023-03-25T05:31:05;6.03;;;2.30;;
78143;SDS011;67394;52.522;13.622;2023-03-25T05:33:32;5.47;;;2.00;;
78143;SDS011;67394;52.522;13.622;2023-03-25T05:36:00;3.47;;;1.88;;
78143;SDS011;67394;52.522;13.622;2023-03-25T05:38:26;3.35;;;2.40;;
78143;SDS011;67394;52.522;13.622;2023-03-25T05:40:53;6.28;;;2.47;;
78143;SDS011;67394;52.522;13.622;2023-03-25T05:43:19;4.15;;;2.35;;
78143;SDS011;67394;52.522;13.622;2023-03-25T05:45:45;4.40;;;2.60;;
78143;SDS011;67394;52.522;13.622;2023-03-25T05:48:12;3.70;;;2.15;;
78143;SDS011;67394;52.522;13.622;2023-03-25T05:50:38;5.82;;;2.10;;
78143;SDS011;67394;52.522;13.622;2023-03-25T05:53:05;3.22;;;1.80;;
78143;SDS011;67394;52.522;13.622;2023-03-25T05:55:31;5.50;;;2.15;;
78143;SDS011;67394;52.522;13.622;2023-03-25T05:57:57;4.82;;;2.28;;
78143;SDS011;67394;52.522;13.622;2023-03-25T06:00:24;3.90;;;2.15;;
78143;SDS011;67394;52.522;13.622;2023-03-25T06:02:50;4.25;;;2.03;;
78143;SDS011;67394;52.522;13.622;2023-03-25T06:05:17;3.33;;;2.00;;
78143;SDS011;67394;52.522;13.622;2023-03-25T06:07:44;5.03;;;1.90;;
78143;SDS011;67394;52.522;13.622;2023-03-25T06:10:12;2.70;;;1.98;;
78143;SDS011;67394;52.522;13.622;2023-03-25T06:12:39;3.28;;;1.88;;
78143;SDS011;67394;52.522;13.622;2023-03-25T06:15:06;4.28;;;2.03;;
78143;SDS011;67394;52.522;13.622;2023-03-25T06:17:34;3.22;;;2.00;;
78143;SDS011;67394;52.522;13.622;2023-03-25T06:20:01;3.60;;;1.35;;
78143;SDS011;67394;52.522;13.622;2023-03-25T06:22:27;3.70;;;1.70;;
78143;SDS011;67394;52.522;13.622;2023-03-25T06:24:53;2.67;;;1.40;;
78143;SDS011;67394;52.522;13.622;2023-03-25T06:27:20;3.80;;;1.40;;
78143;SDS011;67394;52.522;13.622;2023-03-25T06:29:46;1.77;;;1.10;;
78143;SDS011;67394;52.522;13.622;2023-03-25T06:32:13;2.42;;;1.25;;
78143;SDS011;67394;52.522;13.622;2023-03-25T06:37:09;2.40;;;1.40;;
78143;SDS011;67394;52.522;13.622;2023-03-25T06:39:35;3.08;;;1.90;;
78143;SDS011;67394;52.522;13.622;2023-03-25T06:42:03;3.28;;;1.20;;
78143;SDS011;67394;52.522;13.622;2023-03-25T06:44:30;2.90;;;1.40;;
78143;SDS011;67394;52.522;13.622;2023-03-25T06:46:58;3.13;;;1.40;;
78143;SDS011;67394;52.522;13.622;2023-03-25T06:49:25;2.28;;;1.35;;
78143;SDS011;67394;52.522;13.622;2023-03-25T06:51:51;2.05;;;1.30;;
78143;SDS011;67394;52.522;13.622;2023-03-25T06:54:17;2.75;;;1.40;;
78143;SDS011;67394;52.522;13.622;2023-03-25T06:56:44;1.95;;;1.25;;
78143;SDS011;67394;52.522;13.622;2023-03-25T06:59:10;3.10;;;1.40;;
78143;SDS011;67394;52.522;13.622;2023-03-25T07:01:36;1.95;;;1.23;;
78143;SDS011;67394;52.522;13.622;2023-03-25T07:04:03;2.20;;;1.05;;
78143;SDS011;67394;52.522;13.622;2023-03-25T07:06:29;4.03;;;1.15;;
78143;SDS011;67394;52.522;13.622;2023-03-25T07:08:56;4.75;;;1.10;;
78143;SDS011;67394;52.522;13.622;2023-03-25T07:11:24;1.55;;;1.00;;
78143;SDS011;67394;52.522;13.622;2023-03-25T07:13:53;3.78;;;1.30;;
78143;SDS011;67394;52.522;13.622;2023-03-25T07:16:22;2.13;;;1.23;;
78143;SDS011;67394;52.522;13.622;2023-03-25T07:18:49;3.03;;;1.40;;
78143;SDS011;67394;52.522;13.622;2023-03-25T07:21:16;2.05;;;1.40;;
78143;SDS011;67394;52.522;13.622;2023-03-25T07:26:09;2.95;;;1.92;;
78143;SDS011;67394;52.522;13.622;2023-03-25T07:28:35;3.13;;;1.50;;
78143;SDS011;67394;52.522;13.622;2023-03-25T07:31:04;3.17;;;0.98;;
78143;SDS011;67394;52.522;13.622;2023-03-25T07:33:35;3.38;;;1.13;;
78143;SDS011;67394;52.522;13.622;2023-03-25T07:36:01;2.92;;;1.23;;
78143;SDS011;67394;52.522;13.622;2023-03-25T07:38:29;1.52;;;1.23;;
78143;SDS011;67394;52.522;13.622;2023-03-25T07:40:55;2.05;;;1.00;;
78143;SDS011;67394;52.522;13.622;2023-03-25T07:43:22;3.55;;;1.17;;
78143;SDS011;67394;52.522;13.622;2023-03-25T07:45:48;2.15;;;1.10;;
78143;SDS011;67394;52.522;13.622;2023-03-25T07:48:14;3.45;;;1.13;;
78143;SDS011;67394;52.522;13.622;2023-03-25T07:50:41;1.80;;;1.10;;
78143;SDS011;67394;52.522;13.622;2023-03-25T07:53:08;2.22;;;1.33;;
78143;SDS011;67394;52.522;13.622;2023-03-25T07:55:35;3.28;;;1.38;;
78143;SDS011;67394;52.522;13.622;2023-03-25T07:58:01;2.10;;;0.93;;
78143;SDS011;67394;52.522;13.622;2023-03-25T08:00:30;2.10;;;1.45;;
78143;SDS011;67394;52.522;13.622;2023-03-25T08:02:56;2.60;;;1.20;;
78143;SDS011;67394;52.522;13.622;2023-03-25T08:05:23;1.73;;;1.15;;
78143;SDS011;67394;52.522;13.622;2023-03-25T08:07:50;5.82;;;2.05;;
78143;SDS011;67394;52.522;13.622;2023-03-25T08:10:17;2.70;;;1.10;;
78143;SDS011;67394;52.522;13.622;2023-03-25T08:15:10;3.03;;;1.13;;
78143;SDS011;67394;52.522;13.622;2023-03-25T08:17:38;3.78;;;1.15;;
78143;SDS011;67394;52.522;13.622;2023-03-25T08:22:32;3.33;;;1.15;;
78143;SDS011;67394;52.522;13.622;2023-03-25T08:24:58;1.85;;;1.20;;
78143;SDS011;67394;52.522;13.622;2023-03-25T08:27:25;3.28;;;1.52;;
78143;SDS011;67394;52.522;13.622;2023-03-25T08:29:51;2.25;;;1.23;;
78143;SDS011;67394;52.522;13.622;2023-03-25T08:32:17;3.22;;;1.10;;
78143;SDS011;67394;52.522;13.622;2023-03-25T08:34:44;4.03;;;1.50;;
78143;SDS011;67394;52.522;13.622;2023-03-25T08:37:10;4.07;;;1.27;;
78143;SDS011;67394;52.522;13.622;2023-03-25T08:39:37;1.98;;;1.15;;
78143;SDS011;67394;52.522;13.622;2023-03-25T08:42:04;2.70;;;1.45;;
78143;SDS011;67394;52.522;13.622;2023-03-25T08:44:31;1.60;;;1.27;;
78143;SDS011;67394;52.522;13.622;2023-03-25T08:46:57;2.25;;;1.30;;
78143;SDS011;67394;52.522;13.622;2023-03-25T08:49:24;5.22;;;1.27;;
78143;SDS011;67394;52.522;13.622;2023-03-25T08:51:50;2.63;;;1.13;;
78143;SDS011;67394;52.522;13.622;2023-03-25T08:54:16;4.35;;;1.10;;
78143;SDS011;67394;52.522;13.622;2023-03-25T08:56:43;4.18;;;1.20;;
78143;SDS011;67394;52.522;13.622;2023-03-25T08:59:09;2.45;;;1.45;;
78143;SDS011;67394;52.522;13.622;2023-03-25T09:01:36;2.05;;;0.88;;
78143;SDS011;67394;52.522;13.622;2023-03-25T09:04:05;1.20;;;0.98;;
78143;SDS011;67394;52.522;13.622;2023-03-25T09:06:31;1.67;;;0.80;;
78143;SDS011;67394;52.522;13.622;2023-03-25T09:09:13;1.80;;;1.10;;
78143;SDS011;67394;52.522;13.622;2023-03-25T09:11:40;1.48;;;0.85;;
78143;SDS011;67394;52.522;13.622;2023-03-25T09:14:06;2.60;;;0.95;;
78143;SDS011;67394;52.522;13.622;2023-03-25T09:16:33;2.25;;;0.90;;
78143;SDS011;67394;52.522;13.622;2023-03-25T09:19:00;2.05;;;0.93;;
78143;SDS011;67394;52.522;13.622;2023-03-25T09:21:26;3.60;;;1.10;;
78143;SDS011;67394;52.522;13.622;2023-03-25T09:23:53;2.65;;;1.00;;
78143;SDS011;67394;52.522;13.622;2023-03-25T09:26:19;1.92;;;1.15;;
78143;SDS011;67394;52.522;13.622;2023-03-25T09:28:46;1.55;;;0.93;;
78143;SDS011;67394;52.522;13.622;2023-03-25T09:31:12;1.95;;;0.90;;
78143;SDS011;67394;52.522;13.622;2023-03-25T09:33:39;2.80;;;1.02;;
78143;SDS011;67394;52.522;13.622;2023-03-25T09:36:05;1.35;;;1.00;;
78143;SDS011;67394;52.522;13.622;2023-03-25T09:38:32;2.03;;;1.00;;
78143;SDS011;67394;52.522;13.622;2023-03-25T09:41:00;9.07;;;1.30;;
78143;SDS011;67394;52.522;13.622;2023-03-25T09:43:48;2.33;;;1.17;;
78143;SDS011;67394;52.522;13.622;2023-03-25T09:46:23;1.73;;;1.02;;
78143;SDS011;67394;52.522;13.622;2023-03-25T09:48:49;3.35;;;1.30;;
78143;SDS011;67394;52.522;13.622;2023-03-25T09:53:46;2.72;;;1.10;;
78143;SDS011;67394;52.522;13.622;2023-03-25T09:56:17;2.30;;;1.10;;
78143;SDS011;67394;52.522;13.622;2023-03-25T09:58:50;2.80;;;1.25;;
78143;SDS011;67394;52.522;13.622;2023-03-25T10:12:46;2.85;;;1.20;;
78143;SDS011;67394;52.522;13.622;2023-03-25T10:18:23;2.00;;;1.02;;
78143;SDS011;67394;52.522;13.622;2023-03-25T10:23:46;1.50;;;1.05;;
78143;SDS011;67394;52.522;13.622;2023-03-25T10:26:19;1.92;;;1.10;;
78143;SDS011;67394;52.522;13.622;2023-03-25T10:28:59;2.10;;;1.00;;
78143;SDS011;67394;52.522;13.622;2023-03-25T10:31:31;1.95;;;1.08;;
78143;SDS011;67394;52.522;13.622;2023-03-25T10:34:06;3.92;;;1.27;;
78143;SDS011;67394;52.522;13.622;2023-03-25T10:36:43;2.78;;;1.10;;
78143;SDS011;67394;52.522;13.622;2023-03-25T10:39:19;6.18;;;2.88;;
78143;SDS011;67394;52.522;13.622;2023-03-25T10:41:49;2.97;;;1.60;;
78143;SDS011;67394;52.522;13.622;2023-03-25T10:44:20;1.85;;;1.05;;
78143;SDS011;67394;52.522;13.622;2023-03-25T10:46:50;1.77;;;1.30;;
78143;SDS011;67394;52.522;13.622;2023-03-25T10:51:54;2.08;;;1.40;;
78143;SDS011;67394;52.522;13.622;2023-03-25T10:54:22;2.58;;;1.50;;
78143;SDS011;67394;52.522;13.622;2023-03-25T10:56:52;3.38;;;1.25;;
78143;SDS011;67394;52.522;13.622;2023-03-25T11:01:59;3.78;;;1.05;;
78143;SDS011;67394;52.522;13.622;2023-03-25T11:04:32;2.33;;;1.42;;
78143;SDS011;67394;52.522;13.622;2023-03-25T11:07:08;2.42;;;1.38;;
78143;SDS011;67394;52.522;13.622;2023-03-25T11:09:41;1.95;;;1.20;;
78143;SDS011;67394;52.522;13.622;2023-03-25T11:12:08;2.33;;;1.45;;
78143;SDS011;67394;52.522;13.622;2023-03-25T11:14:38;4.65;;;1.13;;
78143;SDS011;67394;52.522;13.622;2023-03-25T11:17:07;2.88;;;1.73;;
78143;SDS011;67394;52.522;13.622;2023-03-25T11:19:41;1.08;;;0.90;;
78143;SDS011;67394;52.522;13.622;2023-03-25T11:24:44;4.18;;;1.63;;
78143;SDS011;67394;52.522;13.622;2023-03-25T11:27:17;2.78;;;1.48;;
78143;SDS011;67394;52.522;13.622;2023-03-25T11:29:52;2.35;;;1.33;;
78143;SDS011;67394;52.522;13.622;2023-03-25T11:32:23;1.67;;;0.98;;
78143;SDS011;67394;52.522;13.622;2023-03-25T11:34:56;1.30;;;0.90;;
78143;SDS011;67394;52.522;13.622;2023-03-25T11:37:26;1.58;;;1.13;;
78143;SDS011;67394;52.522;13.622;2023-03-25T11:39:55;2.10;;;1.30;;
78143;SDS011;67394;52.522;13.622;2023-03-25T11:42:31;2.25;;;1.30;;
78143;SDS011;67394;52.522;13.622;2023-03-25T11:45:05;1.35;;;1.00;;
78143;SDS011;67394;52.522;13.622;2023-03-25T11:50:00;3.45;;;1.27;;
78143;SDS011;67394;52.522;13.622;2023-03-25T11:55:16;1.55;;;0.80;;
78143;SDS011;67394;52.522;13.622;2023-03-25T11:57:46;1.77;;;1.20;;
78143;SDS011;67394;52.522;13.622;2023-03-25T12:03:04;1.55;;;0.93;;
78143;SDS011;67394;52.522;13.622;2023-03-25T12:05:37;3.78;;;1.30;;
78143;SDS011;67394;52.522;13.622;2023-03-25T12:13:32;1.83;;;1.35;;
78143;SDS011;67394;52.522;13.622;2023-03-25T12:18:34;2.08;;;1.20;;
78143;SDS011;67394;52.522;13.622;2023-03-25T12:21:12;1.85;;;1.05;;
78143;SDS011;67394;52.522;13.622;2023-03-25T12:27:34;4.65;;;1.60;;
78143;SDS011;67394;52.522;13.622;2023-03-25T12:32:49;4.20;;;1.80;;
78143;SDS011;67394;52.522;13.622;2023-03-25T12:35:47;2.63;;;1.27;;
78143;SDS011;67394;52.522;13.622;2023-03-25T12:38:30;2.97;;;1.27;;
78143;SDS011;67394;52.522;13.622;2023-03-25T12:41:25;1.45;;;1.10;;
78143;SDS011;67394;52.522;13.622;2023-03-25T12:44:01;1.48;;;1.00;;
78143;SDS011;67394;52.522;13.622;2023-03-25T12:52:03;2.70;;;1.02;;
78143;SDS011;67394;52.522;13.622;2023-03-25T13:00:23;1.55;;;0.93;;
78143;SDS011;67394;52.522;13.622;2023-03-25T13:05:36;1.50;;;0.80;;
78143;SDS011;67394;52.522;13.622;2023-03-25T13:08:08;1.65;;;0.90;;
78143;SDS011;67394;52.522;13.622;2023-03-25T13:10:40;1.50;;;0.68;;
78143;SDS011;67394;52.522;13.622;2023-03-25T13:13:13;1.63;;;0.90;;
78143;SDS011;67394;52.522;13.622;2023-03-25T13:15:56;2.53;;;1.58;;
78143;SDS011;67394;52.522;13.622;2023-03-25T13:18:34;2.88;;;1.30;;
78143;SDS011;67394;52.522;13.622;2023-03-25T13:21:06;3.55;;;1.20;;
78143;SDS011;67394;52.522;13.622;2023-03-25T13:23:39;2.22;;;0.95;;
78143;SDS011;67394;52.522;13.622;2023-03-25T13:26:09;1.55;;;1.00;;
78143;SDS011;67394;52.522;13.622;2023-03-25T13:28:39;1.33;;;0.90;;
78143;SDS011;67394;52.522;13.622;2023-03-25T13:31:12;3.33;;;1.40;;
78143;SDS011;67394;52.522;13.622;2023-03-25T13:33:46;2.33;;;0.90;;
78143;SDS011;67394;52.522;13.622;2023-03-25T13:36:24;1.95;;;1.10;;
78143;SDS011;67394;52.522;13.622;2023-03-25T13:39:01;2.50;;;0.77;;
78143;SDS011;67394;52.522;13.622;2023-03-25T13:41:38;0.70;;;0.60;;
78143;SDS011;67394;52.522;13.622;2023-03-25T13:44:24;1.95;;;0.73;;
78143;SDS011;67394;52.522;13.622;2023-03-25T13:46:59;1.23;;;1.00;;
78143;SDS011;67394;52.522;13.622;2023-03-25T13:52:16;0.95;;;0.70;;
78143;SDS011;67394;52.522;13.622;2023-03-25T13:54:51;1.52;;;1.00;;
78143;SDS011;67394;52.522;13.622;2023-03-25T13:57:33;0.88;;;0.60;;
78143;SDS011;67394;52.522;13.622;2023-03-25T14:16:29;2.45;;;1.67;;
78143;SDS011;67394;52.522;13.622;2023-03-25T14:19:08;2.72;;;1.52;;
78143;SDS011;67394;52.522;13.622;2023-03-25T14:24:08;2.40;;;1.52;;
78143;SDS011;67394;52.522;13.622;2023-03-25T14:26:40;5.53;;;2.90;;
78143;SDS011;67394;52.522;13.622;2023-03-25T14:29:18;4.03;;;2.15;;
78143;SDS011;67394;52.522;13.622;2023-03-25T14:32:05;2.17;;;1.70;;
78143;SDS011;67394;52.522;13.622;2023-03-25T14:34:34;2.65;;;1.60;;
78143;SDS011;67394;52.522;13.622;2023-03-25T14:44:33;2.42;;;1.20;;
78143;SDS011;67394;52.522;13.622;2023-03-25T14:55:08;2.70;;;1.70;;
78143;SDS011;67394;52.522;13.622;2023-03-25T14:57:43;3.17;;;1.63;;
78143;SDS011;67394;52.522;13.622;2023-03-25T15:00:19;3.05;;;1.80;;
78143;SDS011;67394;52.522;13.622;2023-03-25T15:02:50;3.75;;;2.03;;
78143;SDS011;67394;52.522;13.622;2023-03-25T15:05:24;1.85;;;1.38;;
78143;SDS011;67394;52.522;13.622;2023-03-25T15:13:05;1.40;;;1.00;;
78143;SDS011;67394;52.522;13.622;2023-03-25T15:18:11;1.58;;;1.13;;
78143;SDS011;67394;52.522;13.622;2023-03-25T15:26:09;3.13;;;1.58;;
78143;SDS011;67394;52.522;13.622;2023-03-25T15:28:51;3.03;;;1.30;;
78143;SDS011;67394;52.522;13.622;2023-03-25T15:31:34;2.97;;;1.27;;
78143;SDS011;67394;52.522;13.622;2023-03-25T15:34:23;1.58;;;1.00;;
78143;SDS011;67394;52.522;13.622;2023-03-25T15:57:23;2.10;;;1.80;;
78143;SDS011;67394;52.522;13.622;2023-03-25T16:00:06;3.30;;;1.33;;
78143;SDS011;67394;52.522;13.622;2023-03-25T16:05:11;3.47;;;1.48;;
78143;SDS011;67394;52.522;13.622;2023-03-25T16:07:40;4.22;;;1.70;;
78143;SDS011;67394;52.522;13.622;2023-03-25T16:10:13;3.00;;;1.63;;
78143;SDS011;67394;52.522;13.622;2023-03-25T16:12:44;2.00;;;1.35;;
78143;SDS011;67394;52.522;13.622;2023-03-25T16:15:13;2.60;;;1.33;;
78143;SDS011;67394;52.522;13.622;2023-03-25T16:17:53;3.05;;;1.50;;
78143;SDS011;67394;52.522;13.622;2023-03-25T16:20:24;3.05;;;1.35;;
78143;SDS011;67394;52.522;13.622;2023-03-25T16:22:52;3.03;;;1.48;;
78143;SDS011;67394;52.522;13.622;2023-03-25T16:28:21;4.25;;;1.50;;
78143;SDS011;67394;52.522;13.622;2023-03-25T16:30:52;2.22;;;1.17;;
78143;SDS011;67394;52.522;13.622;2023-03-25T16:36:00;2.13;;;1.33;;
78143;SDS011;67394;52.522;13.622;2023-03-25T16:38:30;2.78;;;1.40;;
78143;SDS011;67394;52.522;13.622;2023-03-25T16:41:01;4.57;;;1.73;;
78143;SDS011;67394;52.522;13.622;2023-03-25T16:43:29;2.35;;;1.52;;
78143;SDS011;67394;52.522;13.622;2023-03-25T16:45:56;5.18;;;2.10;;
78143;SDS011;67394;52.522;13.622;2023-03-25T16:50:53;3.00;;;1.88;;
78143;SDS011;67394;52.522;13.622;2023-03-25T16:53:22;4.50;;;1.67;;
78143;SDS011;67394;52.522;13.622;2023-03-25T16:56:02;2.40;;;1.63;;
78143;SDS011;67394;52.522;13.622;2023-03-25T17:01:27;2.83;;;1.58;;
78143;SDS011;67394;52.522;13.622;2023-03-25T17:04:08;2.33;;;1.40;;
78143;SDS011;67394;52.522;13.622;2023-03-25T17:06:35;4.22;;;1.48;;
78143;SDS011;67394;52.522;13.622;2023-03-25T17:09:02;2.88;;;1.60;;
78143;SDS011;67394;52.522;13.622;2023-03-25T17:11:32;2.65;;;1.55;;
78143;SDS011;67394;52.522;13.622;2023-03-25T17:14:00;4.93;;;1.95;;
78143;SDS011;67394;52.522;13.622;2023-03-25T17:16:31;3.67;;;1.85;;
78143;SDS011;67394;52.522;13.622;2023-03-25T17:18:58;5.65;;;2.50;;
78143;SDS011;67394;52.522;13.622;2023-03-25T17:21:28;3.55;;;1.95;;
78143;SDS011;67394;52.522;13.622;2023-03-25T17:23:57;3.58;;;2.42;;
78143;SDS011;67394;52.522;13.622;2023-03-25T17:26:30;7.13;;;3.38;;
78143;SDS011;67394;52.522;13.622;2023-03-25T17:28:59;3.67;;;2.53;;
78143;SDS011;67394;52.522;13.622;2023-03-25T17:31:31;4.63;;;2.42;;
78143;SDS011;67394;52.522;13.622;2023-03-25T17:36:34;3.75;;;2.00;;
78143;SDS011;67394;52.522;13.622;2023-03-25T17:39:03;4.43;;;2.00;;
78143;SDS011;67394;52.522;13.622;2023-03-25T17:41:37;6.63;;;3.80;;
78143;SDS011;67394;52.522;13.622;2023-03-25T17:46:31;5.32;;;3.00;;
78143;SDS011;67394;52.522;13.622;2023-03-25T17:48:58;8.18;;;4.28;;
78143;SDS011;67394;52.522;13.622;2023-03-25T17:51:26;7.15;;;3.47;;
78143;SDS011;67394;52.522;13.622;2023-03-25T17:53:54;5.43;;;3.47;;
78143;SDS011;67394;52.522;13.622;2023-03-25T17:56:23;7.38;;;3.85;;
78143;SDS011;67394;52.522;13.622;2023-03-25T17:58:56;5.85;;;3.33;;
78143;SDS011;67394;52.522;13.622;2023-03-25T18:01:28;5.53;;;2.83;;
78143;SDS011;67394;52.522;13.622;2023-03-25T18:03:55;5.25;;;2.67;;
78143;SDS011;67394;52.522;13.622;2023-03-25T18:06:22;6.00;;;2.95;;
78143;SDS011;67394;52.522;13.622;2023-03-25T18:08:49;4.70;;;2.50;;
78143;SDS011;67394;52.522;13.622;2023-03-25T18:11:15;6.05;;;2.63;;